sensor_id;sensor_type;location;lat;lon;timestamp;temperature;humidity
70986;DHT22;58645;43.068;25.610;2023-05-29T00:00:20;15.50;99.90
70986;DHT22;58645;43.068;25.610;2023-05-29T00:02:47;15.40;99.90
70986;DHT22;58645;43.068;25.610;2023-05-29T00:05:13;15.40;99.90
70986;DHT22;58645;43.068;25.610;2023-05-29T00:07:40;15.30;99.90
70986;DHT22;58645;43.068;25.610;2023-05-29T00:10:06;15.10;99.90
70986;DHT22;58645;43.068;25.610;2023-05-29T00:12:33;15.10;99.90
70986;DHT22;58645;43.068;25.610;2023-05-29T00:14:58;15.00;99.90
70986;DHT22;58645;43.068;25.610;2023-05-29T00:17:24;15.00;99.90
70986;DHT22;58645;43.068;25.610;2023-05-29T00:19:50;15.00;99.90
70986;DHT22;58645;43.068;25.610;2023-05-29T00:22:16;14.90;99.90
70986;DHT22;58645;43.068;25.610;2023-05-29T00:24:42;14.90;99.90
70986;DHT22;58645;43.068;25.610;2023-05-29T00:27:08;14.90;99.90
70986;DHT22;58645;43.068;25.610;2023-05-29T00:29:34;14.90;99.90
70986;DHT22;58645;43.068;25.610;2023-05-29T00:32:01;14.90;99.90
70986;DHT22;58645;43.068;25.610;2023-05-29T00:34:27;14.90;99.90
70986;DHT22;58645;43.068;25.610;2023-05-29T00:36:53;14.90;99.90
70986;DHT22;58645;43.068;25.610;2023-05-29T00:39:21;14.90;99.90
70986;DHT22;58645;43.068;25.610;2023-05-29T00:41:47;15.00;99.90
70986;DHT22;58645;43.068;25.610;2023-05-29T00:44:21;15.00;99.90
70986;DHT22;58645;43.068;25.610;2023-05-29T00:46:48;15.10;99.90
70986;DHT22;58645;43.068;25.610;2023-05-29T00:49:15;15.10;99.90
70986;DHT22;58645;43.068;25.610;2023-05-29T00:51:42;15.10;99.90
70986;DHT22;58645;43.068;25.610;2023-05-29T00:54:12;15.10;99.90
70986;DHT22;58645;43.068;25.610;2023-05-29T00:56:41;14.90;99.90
70986;DHT22;58645;43.068;25.610;2023-05-29T00:59:11;15.10;99.90
70986;DHT22;58645;43.068;25.610;2023-05-29T01:01:38;15.20;99.90
70986;DHT22;58645;43.068;25.610;2023-05-29T01:04:06;15.20;99.90
70986;DHT22;58645;43.068;25.610;2023-05-29T01:06:35;15.20;99.90
70986;DHT22;58645;43.068;25.610;2023-05-29T01:09:01;15.20;99.90
70986;DHT22;58645;43.068;25.610;2023-05-29T01:12:00;15.30;99.90
70986;DHT22;58645;43.068;25.610;2023-05-29T01:14:33;15.30;99.90
70986;DHT22;58645;43.068;25.610;2023-05-29T01:17:07;15.30;99.90
70986;DHT22;58645;43.068;25.610;2023-05-29T01:20:06;15.30;99.90
70986;DHT22;58645;43.068;25.610;2023-05-29T01:25:58;15.20;99.90
70986;DHT22;58645;43.068;25.610;2023-05-29T01:28:20;15.30;99.90
70986;DHT22;58645;43.068;25.610;2023-05-29T01:30:49;15.30;99.90
70986;DHT22;58645;43.068;25.610;2023-05-29T01:33:15;15.30;99.90
70986;DHT22;58645;43.068;25.610;2023-05-29T01:35:41;15.30;99.90
70986;DHT22;58645;43.068;25.610;2023-05-29T01:38:07;15.30;99.90
70986;DHT22;58645;43.068;25.610;2023-05-29T01:40:33;15.30;99.90
70986;DHT22;58645;43.068;25.610;2023-05-29T01:42:59;15.30;99.90
70986;DHT22;58645;43.068;25.610;2023-05-29T01:45:26;15.30;99.90
70986;DHT22;58645;43.068;25.610;2023-05-29T01:47:52;15.30;99.90
70986;DHT22;58645;43.068;25.610;2023-05-29T01:50:18;15.30;99.90
70986;DHT22;58645;43.068;25.610;2023-05-29T01:52:44;15.30;99.90
70986;DHT22;58645;43.068;25.610;2023-05-29T01:55:10;15.30;99.90
70986;DHT22;58645;43.068;25.610;2023-05-29T01:57:36;15.30;99.90
70986;DHT22;58645;43.068;25.610;2023-05-29T02:00:03;15.30;99.90
70986;DHT22;58645;43.068;25.610;2023-05-29T02:02:37;15.30;99.90
70986;DHT22;58645;43.068;25.610;2023-05-29T02:05:07;15.30;99.90
70986;DHT22;58645;43.068;25.610;2023-05-29T02:07:34;15.30;99.90
70986;DHT22;58645;43.068;25.610;2023-05-29T02:09:59;15.30;99.90
70986;DHT22;58645;43.068;25.610;2023-05-29T02:12:25;15.30;99.90
70986;DHT22;58645;43.068;25.610;2023-05-29T02:14:51;15.30;99.90
70986;DHT22;58645;43.068;25.610;2023-05-29T02:17:17;15.30;99.90
70986;DHT22;58645;43.068;25.610;2023-05-29T02:19:44;15.20;99.90
70986;DHT22;58645;43.068;25.610;2023-05-29T02:22:10;15.20;99.90
70986;DHT22;58645;43.068;25.610;2023-05-29T02:24:36;15.20;99.90
70986;DHT22;58645;43.068;25.610;2023-05-29T02:27:01;15.20;99.90
70986;DHT22;58645;43.068;25.610;2023-05-29T02:29:28;15.20;99.90
70986;DHT22;58645;43.068;25.610;2023-05-29T02:31:57;15.30;99.90
70986;DHT22;58645;43.068;25.610;2023-05-29T02:34:23;15.30;99.90
70986;DHT22;58645;43.068;25.610;2023-05-29T02:36:49;15.20;99.90
70986;DHT22;58645;43.068;25.610;2023-05-29T02:39:15;15.20;99.90
70986;DHT22;58645;43.068;25.610;2023-05-29T02:41:41;15.30;99.90
70986;DHT22;58645;43.068;25.610;2023-05-29T02:44:06;15.30;99.90
70986;DHT22;58645;43.068;25.610;2023-05-29T02:46:32;15.40;99.90
70986;DHT22;58645;43.068;25.610;2023-05-29T02:48:58;15.40;99.90
70986;DHT22;58645;43.068;25.610;2023-05-29T02:51:23;15.40;99.90
70986;DHT22;58645;43.068;25.610;2023-05-29T02:53:49;15.40;99.90
70986;DHT22;58645;43.068;25.610;2023-05-29T02:56:15;15.40;99.90
70986;DHT22;58645;43.068;25.610;2023-05-29T02:58:41;15.40;99.90
70986;DHT22;58645;43.068;25.610;2023-05-29T03:01:07;15.50;99.90
70986;DHT22;58645;43.068;25.610;2023-05-29T03:03:36;15.50;99.90
70986;DHT22;58645;43.068;25.610;2023-05-29T03:06:02;15.50;99.90
70986;DHT22;58645;43.068;25.610;2023-05-29T03:08:28;15.50;99.90
70986;DHT22;58645;43.068;25.610;2023-05-29T03:10:55;15.50;99.90
70986;DHT22;58645;43.068;25.610;2023-05-29T03:13:22;15.50;99.90
70986;DHT22;58645;43.068;25.610;2023-05-29T03:15:48;15.50;99.90
70986;DHT22;58645;43.068;25.610;2023-05-29T03:18:13;15.40;99.90
70986;DHT22;58645;43.068;25.610;2023-05-29T03:20:39;15.50;99.90
70986;DHT22;58645;43.068;25.610;2023-05-29T03:23:05;15.50;99.90
70986;DHT22;58645;43.068;25.610;2023-05-29T03:25:31;15.50;99.90
70986;DHT22;58645;43.068;25.610;2023-05-29T03:27:57;15.60;99.90
70986;DHT22;58645;43.068;25.610;2023-05-29T03:30:22;15.60;99.90
70986;DHT22;58645;43.068;25.610;2023-05-29T03:32:48;15.60;99.90
70986;DHT22;58645;43.068;25.610;2023-05-29T03:35:14;15.60;99.90
70986;DHT22;58645;43.068;25.610;2023-05-29T03:37:39;15.50;99.90
70986;DHT22;58645;43.068;25.610;2023-05-29T03:40:05;15.50;99.90
70986;DHT22;58645;43.068;25.610;2023-05-29T03:42:31;15.50;99.90
70986;DHT22;58645;43.068;25.610;2023-05-29T03:44:57;15.50;99.90
70986;DHT22;58645;43.068;25.610;2023-05-29T03:47:23;15.50;99.90
70986;DHT22;58645;43.068;25.610;2023-05-29T03:49:50;15.50;99.90
70986;DHT22;58645;43.068;25.610;2023-05-29T03:52:16;15.50;99.90
70986;DHT22;58645;43.068;25.610;2023-05-29T03:54:42;15.60;99.90
70986;DHT22;58645;43.068;25.610;2023-05-29T03:57:10;15.60;99.90
70986;DHT22;58645;43.068;25.610;2023-05-29T03:59:36;15.60;99.90
70986;DHT22;58645;43.068;25.610;2023-05-29T04:02:02;15.60;99.90
70986;DHT22;58645;43.068;25.610;2023-05-29T04:04:28;15.60;99.90
70986;DHT22;58645;43.068;25.610;2023-05-29T04:06:53;15.70;99.90
70986;DHT22;58645;43.068;25.610;2023-05-29T04:09:19;15.70;99.90
70986;DHT22;58645;43.068;25.610;2023-05-29T04:11:45;15.80;99.90
70986;DHT22;58645;43.068;25.610;2023-05-29T04:14:11;15.80;99.90
70986;DHT22;58645;43.068;25.610;2023-05-29T04:16:37;15.80;99.90
70986;DHT22;58645;43.068;25.610;2023-05-29T04:19:02;15.80;99.90
70986;DHT22;58645;43.068;25.610;2023-05-29T04:21:29;15.90;99.90
70986;DHT22;58645;43.068;25.610;2023-05-29T04:23:58;15.90;99.90
70986;DHT22;58645;43.068;25.610;2023-05-29T04:26:24;16.00;99.90
70986;DHT22;58645;43.068;25.610;2023-05-29T04:28:53;16.00;99.90
70986;DHT22;58645;43.068;25.610;2023-05-29T04:31:26;16.00;99.90
70986;DHT22;58645;43.068;25.610;2023-05-29T04:33:55;16.00;99.90
70986;DHT22;58645;43.068;25.610;2023-05-29T04:36:24;16.10;99.90
70986;DHT22;58645;43.068;25.610;2023-05-29T04:38:52;16.00;99.90
70986;DHT22;58645;43.068;25.610;2023-05-29T04:41:18;16.00;99.90
70986;DHT22;58645;43.068;25.610;2023-05-29T04:43:43;16.10;99.90
70986;DHT22;58645;43.068;25.610;2023-05-29T04:46:09;16.10;99.90
70986;DHT22;58645;43.068;25.610;2023-05-29T04:48:38;16.10;99.90
70986;DHT22;58645;43.068;25.610;2023-05-29T04:51:07;16.10;99.90
70986;DHT22;58645;43.068;25.610;2023-05-29T04:53:39;16.10;99.90
70986;DHT22;58645;43.068;25.610;2023-05-29T04:56:06;16.00;99.90
70986;DHT22;58645;43.068;25.610;2023-05-29T04:58:32;16.00;99.90
70986;DHT22;58645;43.068;25.610;2023-05-29T05:00:58;16.10;99.90
70986;DHT22;58645;43.068;25.610;2023-05-29T05:03:24;16.10;99.90
70986;DHT22;58645;43.068;25.610;2023-05-29T05:05:51;16.10;99.90
70986;DHT22;58645;43.068;25.610;2023-05-29T05:08:17;16.10;99.90
70986;DHT22;58645;43.068;25.610;2023-05-29T05:10:43;16.10;99.90
70986;DHT22;58645;43.068;25.610;2023-05-29T05:13:08;16.10;99.90
70986;DHT22;58645;43.068;25.610;2023-05-29T05:15:36;16.10;99.90
70986;DHT22;58645;43.068;25.610;2023-05-29T05:18:02;16.10;99.90
70986;DHT22;58645;43.068;25.610;2023-05-29T05:20:28;16.10;99.90
70986;DHT22;58645;43.068;25.610;2023-05-29T05:22:53;16.10;99.90
70986;DHT22;58645;43.068;25.610;2023-05-29T05:25:21;16.10;99.90
70986;DHT22;58645;43.068;25.610;2023-05-29T05:27:48;16.10;99.90
70986;DHT22;58645;43.068;25.610;2023-05-29T05:30:14;16.10;99.90
70986;DHT22;58645;43.068;25.610;2023-05-29T05:32:39;16.10;99.90
70986;DHT22;58645;43.068;25.610;2023-05-29T05:35:05;16.20;99.90
70986;DHT22;58645;43.068;25.610;2023-05-29T05:37:31;16.30;99.90
70986;DHT22;58645;43.068;25.610;2023-05-29T05:39:57;16.40;99.90
70986;DHT22;58645;43.068;25.610;2023-05-29T05:42:24;16.40;99.90
70986;DHT22;58645;43.068;25.610;2023-05-29T05:44:49;16.40;99.90
70986;DHT22;58645;43.068;25.610;2023-05-29T05:47:15;16.40;99.90
70986;DHT22;58645;43.068;25.610;2023-05-29T05:49:41;16.40;99.90
70986;DHT22;58645;43.068;25.610;2023-05-29T05:52:08;16.40;99.90
70986;DHT22;58645;43.068;25.610;2023-05-29T05:54:34;16.40;99.90
70986;DHT22;58645;43.068;25.610;2023-05-29T05:57:00;16.40;99.90
70986;DHT22;58645;43.068;25.610;2023-05-29T05:59:26;16.40;99.90
70986;DHT22;58645;43.068;25.610;2023-05-29T06:01:51;16.30;99.90
70986;DHT22;58645;43.068;25.610;2023-05-29T06:04:19;16.40;99.90
70986;DHT22;58645;43.068;25.610;2023-05-29T06:06:45;16.40;99.90
70986;DHT22;58645;43.068;25.610;2023-05-29T06:09:10;16.40;99.90
70986;DHT22;58645;43.068;25.610;2023-05-29T06:11:37;16.40;99.90
70986;DHT22;58645;43.068;25.610;2023-05-29T06:14:03;16.50;99.90
70986;DHT22;58645;43.068;25.610;2023-05-29T06:16:29;16.40;99.90
70986;DHT22;58645;43.068;25.610;2023-05-29T06:18:55;16.40;99.90
70986;DHT22;58645;43.068;25.610;2023-05-29T06:21:21;16.50;99.90
70986;DHT22;58645;43.068;25.610;2023-05-29T06:23:47;16.60;99.90
70986;DHT22;58645;43.068;25.610;2023-05-29T06:26:13;16.60;99.90
70986;DHT22;58645;43.068;25.610;2023-05-29T06:28:38;16.70;99.90
70986;DHT22;58645;43.068;25.610;2023-05-29T06:31:04;16.90;99.90
70986;DHT22;58645;43.068;25.610;2023-05-29T06:33:30;17.10;99.90
70986;DHT22;58645;43.068;25.610;2023-05-29T06:35:56;17.10;99.90
70986;DHT22;58645;43.068;25.610;2023-05-29T06:38:21;17.20;99.90
70986;DHT22;58645;43.068;25.610;2023-05-29T06:40:47;17.30;99.90
70986;DHT22;58645;43.068;25.610;2023-05-29T06:43:13;17.30;99.90
70986;DHT22;58645;43.068;25.610;2023-05-29T06:45:39;17.40;99.90
70986;DHT22;58645;43.068;25.610;2023-05-29T06:48:04;17.40;99.90
70986;DHT22;58645;43.068;25.610;2023-05-29T06:50:31;17.20;99.90
70986;DHT22;58645;43.068;25.610;2023-05-29T06:52:57;17.10;99.90
70986;DHT22;58645;43.068;25.610;2023-05-29T06:55:22;17.10;99.90
70986;DHT22;58645;43.068;25.610;2023-05-29T06:57:48;17.10;99.90
70986;DHT22;58645;43.068;25.610;2023-05-29T07:00:14;17.00;99.90
70986;DHT22;58645;43.068;25.610;2023-05-29T07:02:40;17.10;99.90
70986;DHT22;58645;43.068;25.610;2023-05-29T07:05:06;17.10;99.90
70986;DHT22;58645;43.068;25.610;2023-05-29T07:07:32;17.00;99.90
70986;DHT22;58645;43.068;25.610;2023-05-29T07:09:58;17.00;99.90
70986;DHT22;58645;43.068;25.610;2023-05-29T07:12:24;16.90;99.90
70986;DHT22;58645;43.068;25.610;2023-05-29T07:14:49;16.90;99.90
70986;DHT22;58645;43.068;25.610;2023-05-29T07:17:15;16.80;99.90
70986;DHT22;58645;43.068;25.610;2023-05-29T07:19:41;16.80;99.90
70986;DHT22;58645;43.068;25.610;2023-05-29T07:22:07;16.80;99.90
70986;DHT22;58645;43.068;25.610;2023-05-29T07:24:33;16.80;99.90
70986;DHT22;58645;43.068;25.610;2023-05-29T07:26:58;16.70;99.90
70986;DHT22;58645;43.068;25.610;2023-05-29T07:29:24;16.70;99.90
70986;DHT22;58645;43.068;25.610;2023-05-29T07:31:51;16.60;99.90
70986;DHT22;58645;43.068;25.610;2023-05-29T07:34:17;16.50;99.90
70986;DHT22;58645;43.068;25.610;2023-05-29T07:37:01;16.50;99.90
70986;DHT22;58645;43.068;25.610;2023-05-29T07:39:28;16.50;99.90
70986;DHT22;58645;43.068;25.610;2023-05-29T07:41:57;16.50;99.90
70986;DHT22;58645;43.068;25.610;2023-05-29T07:44:23;16.40;99.90
70986;DHT22;58645;43.068;25.610;2023-05-29T07:46:48;16.30;99.90
70986;DHT22;58645;43.068;25.610;2023-05-29T07:49:14;16.20;99.90
70986;DHT22;58645;43.068;25.610;2023-05-29T07:51:41;16.20;99.90
70986;DHT22;58645;43.068;25.610;2023-05-29T07:54:06;16.20;99.90
70986;DHT22;58645;43.068;25.610;2023-05-29T07:56:32;16.20;99.90
70986;DHT22;58645;43.068;25.610;2023-05-29T07:58:59;16.20;99.90
70986;DHT22;58645;43.068;25.610;2023-05-29T08:01:25;16.10;99.90
70986;DHT22;58645;43.068;25.610;2023-05-29T08:03:52;16.10;99.90
70986;DHT22;58645;43.068;25.610;2023-05-29T08:06:18;16.10;99.90
70986;DHT22;58645;43.068;25.610;2023-05-29T08:08:44;16.20;99.90
70986;DHT22;58645;43.068;25.610;2023-05-29T08:11:10;16.20;99.90
70986;DHT22;58645;43.068;25.610;2023-05-29T08:13:36;16.30;99.90
70986;DHT22;58645;43.068;25.610;2023-05-29T08:16:03;16.40;99.90
70986;DHT22;58645;43.068;25.610;2023-05-29T08:18:30;16.60;99.90
70986;DHT22;58645;43.068;25.610;2023-05-29T08:20:56;16.70;99.90
70986;DHT22;58645;43.068;25.610;2023-05-29T08:23:22;16.80;99.90
70986;DHT22;58645;43.068;25.610;2023-05-29T08:25:47;16.70;99.90
70986;DHT22;58645;43.068;25.610;2023-05-29T08:28:14;16.80;99.90
70986;DHT22;58645;43.068;25.610;2023-05-29T08:30:40;16.90;99.90
70986;DHT22;58645;43.068;25.610;2023-05-29T08:33:06;16.90;99.90
70986;DHT22;58645;43.068;25.610;2023-05-29T08:35:32;16.90;99.90
70986;DHT22;58645;43.068;25.610;2023-05-29T08:37:59;16.70;99.90
70986;DHT22;58645;43.068;25.610;2023-05-29T08:40:24;16.70;99.90
70986;DHT22;58645;43.068;25.610;2023-05-29T08:43:05;16.70;99.90
70986;DHT22;58645;43.068;25.610;2023-05-29T08:45:34;16.70;99.90
70986;DHT22;58645;43.068;25.610;2023-05-29T08:48:01;16.80;99.90
70986;DHT22;58645;43.068;25.610;2023-05-29T08:50:27;16.80;99.90
70986;DHT22;58645;43.068;25.610;2023-05-29T08:52:53;16.80;99.90
70986;DHT22;58645;43.068;25.610;2023-05-29T08:55:18;16.90;99.90
70986;DHT22;58645;43.068;25.610;2023-05-29T08:57:45;16.80;99.90
70986;DHT22;58645;43.068;25.610;2023-05-29T09:00:11;17.10;99.90
70986;DHT22;58645;43.068;25.610;2023-05-29T09:02:42;17.00;99.90
70986;DHT22;58645;43.068;25.610;2023-05-29T09:05:11;17.00;99.90
70986;DHT22;58645;43.068;25.610;2023-05-29T09:07:39;17.00;99.90
70986;DHT22;58645;43.068;25.610;2023-05-29T09:10:06;17.10;99.90
70986;DHT22;58645;43.068;25.610;2023-05-29T09:12:33;17.20;99.90
70986;DHT22;58645;43.068;25.610;2023-05-29T09:14:59;17.40;99.90
70986;DHT22;58645;43.068;25.610;2023-05-29T09:17:33;17.30;99.90
70986;DHT22;58645;43.068;25.610;2023-05-29T09:19:59;17.40;99.90
70986;DHT22;58645;43.068;25.610;2023-05-29T09:22:26;17.60;99.90
70986;DHT22;58645;43.068;25.610;2023-05-29T09:24:52;17.60;99.90
70986;DHT22;58645;43.068;25.610;2023-05-29T09:27:18;17.80;99.90
70986;DHT22;58645;43.068;25.610;2023-05-29T09:29:45;17.80;99.90
70986;DHT22;58645;43.068;25.610;2023-05-29T09:32:20;17.80;99.90
70986;DHT22;58645;43.068;25.610;2023-05-29T09:34:46;18.00;99.90
70986;DHT22;58645;43.068;25.610;2023-05-29T09:37:12;18.10;99.90
70986;DHT22;58645;43.068;25.610;2023-05-29T09:42:11;17.90;99.90
70986;DHT22;58645;43.068;25.610;2023-05-29T09:44:37;17.90;99.90
70986;DHT22;58645;43.068;25.610;2023-05-29T09:47:03;17.80;99.90
70986;DHT22;58645;43.068;25.610;2023-05-29T09:49:31;17.70;99.90
70986;DHT22;58645;43.068;25.610;2023-05-29T09:51:57;17.60;99.90
70986;DHT22;58645;43.068;25.610;2023-05-29T09:54:27;17.60;99.90
70986;DHT22;58645;43.068;25.610;2023-05-29T09:56:58;17.40;99.90
70986;DHT22;58645;43.068;25.610;2023-05-29T09:59:24;17.30;99.90
70986;DHT22;58645;43.068;25.610;2023-05-29T10:02:02;17.30;99.90
70986;DHT22;58645;43.068;25.610;2023-05-29T10:04:36;17.30;99.90
70986;DHT22;58645;43.068;25.610;2023-05-29T10:09:58;17.50;99.90
70986;DHT22;58645;43.068;25.610;2023-05-29T10:12:27;17.50;99.90
70986;DHT22;58645;43.068;25.610;2023-05-29T10:14:56;17.60;99.90
70986;DHT22;58645;43.068;25.610;2023-05-29T10:17:26;17.80;99.90
70986;DHT22;58645;43.068;25.610;2023-05-29T10:19:55;18.00;99.90
70986;DHT22;58645;43.068;25.610;2023-05-29T10:22:25;18.40;99.90
70986;DHT22;58645;43.068;25.610;2023-05-29T10:24:52;19.20;99.90
70986;DHT22;58645;43.068;25.610;2023-05-29T10:27:18;19.20;99.90
70986;DHT22;58645;43.068;25.610;2023-05-29T10:30:04;19.10;99.90
70986;DHT22;58645;43.068;25.610;2023-05-29T10:35:08;19.00;99.90
70986;DHT22;58645;43.068;25.610;2023-05-29T10:37:40;18.80;99.90
70986;DHT22;58645;43.068;25.610;2023-05-29T10:40:10;18.70;99.90
70986;DHT22;58645;43.068;25.610;2023-05-29T10:42:47;18.60;99.90
70986;DHT22;58645;43.068;25.610;2023-05-29T10:50:59;18.40;99.90
70986;DHT22;58645;43.068;25.610;2023-05-29T10:53:34;18.40;99.90
70986;DHT22;58645;43.068;25.610;2023-05-29T10:56:08;18.40;99.90
70986;DHT22;58645;43.068;25.610;2023-05-29T10:58:34;18.40;99.90
70986;DHT22;58645;43.068;25.610;2023-05-29T11:01:00;18.30;99.90
70986;DHT22;58645;43.068;25.610;2023-05-29T11:03:34;18.30;99.90
70986;DHT22;58645;43.068;25.610;2023-05-29T11:06:04;18.20;99.90
70986;DHT22;58645;43.068;25.610;2023-05-29T11:08:53;18.10;99.90
70986;DHT22;58645;43.068;25.610;2023-05-29T11:11:32;18.10;99.90
70986;DHT22;58645;43.068;25.610;2023-05-29T11:14:05;18.00;99.90
70986;DHT22;58645;43.068;25.610;2023-05-29T11:19:05;18.20;99.90
70986;DHT22;58645;43.068;25.610;2023-05-29T11:24:23;18.40;99.90
70986;DHT22;58645;43.068;25.610;2023-05-29T11:26:51;18.40;99.90
70986;DHT22;58645;43.068;25.610;2023-05-29T11:29:30;18.50;99.90
70986;DHT22;58645;43.068;25.610;2023-05-29T11:32:02;18.60;99.90
70986;DHT22;58645;43.068;25.610;2023-05-29T11:34:29;18.60;99.90
70986;DHT22;58645;43.068;25.610;2023-05-29T11:37:04;18.70;99.90
70986;DHT22;58645;43.068;25.610;2023-05-29T11:39:36;18.80;99.90
70986;DHT22;58645;43.068;25.610;2023-05-29T11:42:03;18.90;99.90
70986;DHT22;58645;43.068;25.610;2023-05-29T11:44:29;18.90;99.90
70986;DHT22;58645;43.068;25.610;2023-05-29T11:47:02;18.90;99.90
70986;DHT22;58645;43.068;25.610;2023-05-29T11:49:29;19.00;99.90
70986;DHT22;58645;43.068;25.610;2023-05-29T11:52:14;19.00;99.90
70986;DHT22;58645;43.068;25.610;2023-05-29T11:54:40;19.00;99.90
70986;DHT22;58645;43.068;25.610;2023-05-29T11:57:22;18.90;99.90
70986;DHT22;58645;43.068;25.610;2023-05-29T11:59:51;18.70;99.90
70986;DHT22;58645;43.068;25.610;2023-05-29T12:02:17;18.70;99.90
70986;DHT22;58645;43.068;25.610;2023-05-29T12:05:02;18.60;99.90
70986;DHT22;58645;43.068;25.610;2023-05-29T12:07:28;18.50;99.90
70986;DHT22;58645;43.068;25.610;2023-05-29T12:09:54;18.60;99.90
70986;DHT22;58645;43.068;25.610;2023-05-29T12:12:23;18.50;99.90
70986;DHT22;58645;43.068;25.610;2023-05-29T12:14:52;18.60;99.90
70986;DHT22;58645;43.068;25.610;2023-05-29T12:17:20;18.70;99.90
70986;DHT22;58645;43.068;25.610;2023-05-29T12:19:46;18.70;99.90
70986;DHT22;58645;43.068;25.610;2023-05-29T12:22:15;18.70;99.90
70986;DHT22;58645;43.068;25.610;2023-05-29T12:24:40;18.70;99.90
70986;DHT22;58645;43.068;25.610;2023-05-29T12:27:07;18.80;99.90
70986;DHT22;58645;43.068;25.610;2023-05-29T12:29:34;18.80;99.90
70986;DHT22;58645;43.068;25.610;2023-05-29T12:32:00;18.90;99.90
70986;DHT22;58645;43.068;25.610;2023-05-29T12:34:26;18.90;99.90
70986;DHT22;58645;43.068;25.610;2023-05-29T12:36:52;18.90;99.90
70986;DHT22;58645;43.068;25.610;2023-05-29T12:39:17;19.00;99.90
70986;DHT22;58645;43.068;25.610;2023-05-29T12:41:43;19.00;99.90
70986;DHT22;58645;43.068;25.610;2023-05-29T12:44:09;18.90;99.90
70986;DHT22;58645;43.068;25.610;2023-05-29T12:46:40;19.00;99.90
70986;DHT22;58645;43.068;25.610;2023-05-29T12:49:16;19.20;99.90
70986;DHT22;58645;43.068;25.610;2023-05-29T12:51:43;18.90;99.90
70986;DHT22;58645;43.068;25.610;2023-05-29T12:54:16;18.80;99.90
70986;DHT22;58645;43.068;25.610;2023-05-29T12:56:42;18.80;99.90
70986;DHT22;58645;43.068;25.610;2023-05-29T12:59:09;18.80;99.90
70986;DHT22;58645;43.068;25.610;2023-05-29T13:01:39;18.80;99.90
70986;DHT22;58645;43.068;25.610;2023-05-29T13:04:06;18.80;99.90
70986;DHT22;58645;43.068;25.610;2023-05-29T13:06:37;18.80;99.90
70986;DHT22;58645;43.068;25.610;2023-05-29T13:09:03;18.80;99.90
70986;DHT22;58645;43.068;25.610;2023-05-29T13:11:32;18.80;99.90
70986;DHT22;58645;43.068;25.610;2023-05-29T13:13:58;18.90;99.90
70986;DHT22;58645;43.068;25.610;2023-05-29T13:16:24;19.00;99.90
70986;DHT22;58645;43.068;25.610;2023-05-29T13:18:50;19.00;99.90
70986;DHT22;58645;43.068;25.610;2023-05-29T13:21:16;19.10;99.90
70986;DHT22;58645;43.068;25.610;2023-05-29T13:23:41;18.90;99.90
70986;DHT22;58645;43.068;25.610;2023-05-29T13:26:07;19.00;99.90
70986;DHT22;58645;43.068;25.610;2023-05-29T13:28:33;18.90;99.90
70986;DHT22;58645;43.068;25.610;2023-05-29T13:30:59;18.60;99.90
70986;DHT22;58645;43.068;25.610;2023-05-29T13:33:25;18.60;99.90
70986;DHT22;58645;43.068;25.610;2023-05-29T13:35:51;18.40;99.90
70986;DHT22;58645;43.068;25.610;2023-05-29T13:38:17;18.20;99.90
70986;DHT22;58645;43.068;25.610;2023-05-29T13:40:42;18.20;99.90
70986;DHT22;58645;43.068;25.610;2023-05-29T13:43:08;18.10;99.90
70986;DHT22;58645;43.068;25.610;2023-05-29T13:45:34;18.10;99.90
70986;DHT22;58645;43.068;25.610;2023-05-29T13:47:59;18.10;99.90
70986;DHT22;58645;43.068;25.610;2023-05-29T13:50:25;18.00;99.90
70986;DHT22;58645;43.068;25.610;2023-05-29T13:52:52;18.00;99.90
70986;DHT22;58645;43.068;25.610;2023-05-29T13:55:18;18.10;99.90
70986;DHT22;58645;43.068;25.610;2023-05-29T13:57:44;17.90;99.90
70986;DHT22;58645;43.068;25.610;2023-05-29T14:00:11;17.80;99.90
70986;DHT22;58645;43.068;25.610;2023-05-29T14:02:37;17.70;99.90
70986;DHT22;58645;43.068;25.610;2023-05-29T14:05:03;17.80;99.90
70986;DHT22;58645;43.068;25.610;2023-05-29T14:07:31;17.70;99.90
70986;DHT22;58645;43.068;25.610;2023-05-29T14:09:57;17.60;99.90
70986;DHT22;58645;43.068;25.610;2023-05-29T14:12:23;17.60;99.90
70986;DHT22;58645;43.068;25.610;2023-05-29T14:14:48;17.60;99.90
70986;DHT22;58645;43.068;25.610;2023-05-29T14:17:14;17.70;99.90
70986;DHT22;58645;43.068;25.610;2023-05-29T14:19:40;17.80;99.90
70986;DHT22;58645;43.068;25.610;2023-05-29T14:22:06;17.90;99.90
70986;DHT22;58645;43.068;25.610;2023-05-29T14:24:32;17.90;99.90
70986;DHT22;58645;43.068;25.610;2023-05-29T14:26:58;18.00;99.90
70986;DHT22;58645;43.068;25.610;2023-05-29T14:29:24;18.10;99.90
70986;DHT22;58645;43.068;25.610;2023-05-29T14:31:50;18.20;99.90
70986;DHT22;58645;43.068;25.610;2023-05-29T14:34:16;18.30;99.90
70986;DHT22;58645;43.068;25.610;2023-05-29T14:36:42;18.40;99.90
70986;DHT22;58645;43.068;25.610;2023-05-29T14:39:10;18.50;99.90
70986;DHT22;58645;43.068;25.610;2023-05-29T14:41:36;18.60;99.90
70986;DHT22;58645;43.068;25.610;2023-05-29T14:44:02;18.70;99.90
70986;DHT22;58645;43.068;25.610;2023-05-29T14:46:28;18.80;99.90
70986;DHT22;58645;43.068;25.610;2023-05-29T14:48:58;18.90;99.90
70986;DHT22;58645;43.068;25.610;2023-05-29T14:51:23;18.90;99.90
70986;DHT22;58645;43.068;25.610;2023-05-29T14:53:50;18.90;99.90
70986;DHT22;58645;43.068;25.610;2023-05-29T14:56:16;18.90;99.90
70986;DHT22;58645;43.068;25.610;2023-05-29T14:58:44;18.90;99.90
70986;DHT22;58645;43.068;25.610;2023-05-29T15:01:10;18.90;99.90
70986;DHT22;58645;43.068;25.610;2023-05-29T15:03:36;18.90;99.90
70986;DHT22;58645;43.068;25.610;2023-05-29T15:06:03;18.90;99.90
70986;DHT22;58645;43.068;25.610;2023-05-29T15:08:29;18.90;99.90
70986;DHT22;58645;43.068;25.610;2023-05-29T15:11:00;18.80;99.90
70986;DHT22;58645;43.068;25.610;2023-05-29T15:13:27;18.80;99.90
70986;DHT22;58645;43.068;25.610;2023-05-29T15:15:52;18.70;99.90
70986;DHT22;58645;43.068;25.610;2023-05-29T15:18:18;18.70;99.90
70986;DHT22;58645;43.068;25.610;2023-05-29T15:20:44;18.50;99.90
70986;DHT22;58645;43.068;25.610;2023-05-29T15:23:10;18.60;99.90
70986;DHT22;58645;43.068;25.610;2023-05-29T15:25:35;18.60;99.90
70986;DHT22;58645;43.068;25.610;2023-05-29T15:28:01;18.60;99.90
70986;DHT22;58645;43.068;25.610;2023-05-29T15:30:28;18.80;99.90
70986;DHT22;58645;43.068;25.610;2023-05-29T15:32:54;18.90;99.90
70986;DHT22;58645;43.068;25.610;2023-05-29T15:35:20;19.00;99.90
70986;DHT22;58645;43.068;25.610;2023-05-29T15:37:45;19.10;99.90